Punta Gialla — IWUC — position and weather

sailwx.info

Track history (hours):
 
Tides and Currents Weather Stations Pressure Air Temp Water Temp Dewpoint Dewpoint Depression Visibility Wind Speed Wind Dir Waves Ship Positions

Punta Gialla

Last reported at 2014-Oct-01 15:32 UTC. Time now 2014-Oct-01 16:29 UTC.
Position N 44°24' E 008°54'.

Length 52 m; draft 2 m.

Type: Tanker. MMSI: 247077500.

Date/timePositionNaut miles runAvg speedWind from/ knotsBaromVisibWave heightAir tempDewpointWater temp
2014-Oct-01 15:32N 44°24' E 008°54'1 0.5
2014-Oct-01 14:33N 44°24' E 008°55'1 0.9
2014-Oct-01 13:25N 44°25' E 008°55'0 0.1
2014-Oct-01 12:32N 44°25' E 008°55'0 0.0
2014-Oct-01 11:33N 44°25' E 008°55'0 0.1
2014-Oct-01 10:28N 44°25' E 008°55'0 0.0
2014-Oct-01 09:30N 44°25' E 008°55'1 0.7
2014-Oct-01 08:33N 44°24' E 008°54'0 0.0
2014-Oct-01 07:33N 44°24' E 008°54'0 0.1
2014-Oct-01 06:33N 44°24' E 008°54'0 0.1
2014-Oct-01 05:33N 44°24' E 008°54'0 0.0
2014-Oct-01 04:32N 44°24' E 008°54'0 0.0
2014-Oct-01 03:33N 44°24' E 008°54'0 0.0
2014-Oct-01 02:33N 44°24' E 008°54'0 0.0
2014-Oct-01 01:33N 44°24' E 008°54'0 0.0
2014-Oct-01 00:33N 44°24' E 008°54'0 0.0
2014-Sep-30 23:33N 44°24' E 008°54'0 0.0
2014-Sep-30 22:33N 44°24' E 008°54'0 0.0
2014-Sep-30 21:33N 44°24' E 008°54'0 0.0
2014-Sep-30 20:31N 44°24' E 008°54'0 0.0
2014-Sep-30 19:34N 44°24' E 008°54'0 0.0
2014-Sep-30 18:34N 44°24' E 008°54'0 0.0
2014-Sep-30 17:32N 44°24' E 008°54'0 0.0
2014-Sep-30 16:33N 44°24' E 008°54'0 0.0
2014-Sep-30 15:33N 44°24' E 008°54'0 0.0
2014-Sep-30 14:33N 44°24' E 008°54'0 0.0
2014-Sep-30 13:33N 44°24' E 008°54'0 0.0
2014-Sep-30 12:33N 44°24' E 008°54'0 0.0
2014-Sep-30 11:33N 44°24' E 008°54'0 0.0
2014-Sep-30 10:33N 44°24' E 008°54'0 0.0
2014-Sep-30 07:34N 44°24' E 008°54'0 0.0
2014-Sep-30 06:34N 44°24' E 008°54'0 0.0
2014-Sep-30 05:34N 44°24' E 008°54'0 0.0
2014-Sep-30 04:34N 44°24' E 008°54'0 0.0
2014-Sep-30 03:33N 44°24' E 008°54'0 0.0
2014-Sep-30 02:34N 44°24' E 008°54'0 0.0
2014-Sep-30 01:33N 44°24' E 008°54'0 0.0
2014-Sep-30 00:34N 44°24' E 008°54'0 0.0
2014-Sep-29 23:34N 44°24' E 008°54'0 0.0
2014-Sep-29 22:33N 44°24' E 008°54'0 0.0
2014-Sep-29 21:34N 44°24' E 008°54'0 0.0
2014-Sep-29 20:33N 44°24' E 008°54'0 0.0
2014-Sep-29 19:34N 44°24' E 008°54'0 0.0
2014-Sep-29 18:34N 44°24' E 008°54'0 0.0
2014-Sep-29 17:34N 44°24' E 008°54'0 0.0
2014-Sep-29 16:22N 44°24' E 008°54'4 5.5
2014-Sep-29 15:33N 44°21' E 008°50'9 9.4
2014-Sep-29 14:33N 44°18' E 008°38'8 6.9
2014-Sep-29 13:27N 44°16' E 008°27'0 0.0
2014-Sep-29 12:17N 44°16' E 008°27'0 0.0
2014-Sep-29 11:33N 44°16' E 008°27'0 0.0
2014-Sep-29 10:30N 44°16' E 008°27'7 2.8
2014-Sep-29 08:07N 44°17' E 008°36'5 8.5
2014-Sep-29 07:33N 44°19' E 008°43'9 8.2
2014-Sep-29 06:30N 44°24' E 008°53'1 1.4
2014-Sep-29 05:33N 44°24' E 008°54'0 0.0
2014-Sep-29 04:33N 44°24' E 008°54'0 0.0
2014-Sep-29 03:33N 44°24' E 008°54'0 0.0
2014-Sep-29 02:33N 44°24' E 008°54'0 0.0
2014-Sep-29 01:33N 44°24' E 008°54'0 0.0
2014-Sep-29 00:33N 44°24' E 008°54'0 0.0
2014-Sep-28 23:33N 44°24' E 008°54'0 0.0
2014-Sep-28 22:32N 44°24' E 008°54'0 0.0
2014-Sep-28 21:33N 44°24' E 008°54'0 0.0
2014-Sep-28 20:33N 44°24' E 008°54'0 0.0
2014-Sep-28 19:33N 44°24' E 008°54'0 0.0
2014-Sep-28 18:33N 44°24' E 008°54'0 0.0
2014-Sep-28 17:32N 44°24' E 008°54'0 0.0
2014-Sep-28 16:33N 44°24' E 008°54'0 0.0
2014-Sep-28 15:33N 44°24' E 008°54'0 0.0
2014-Sep-28 14:33N 44°24' E 008°54'0 0.0
2014-Sep-28 13:32N 44°24' E 008°54'0 0.0
2014-Sep-28 12:33N 44°24' E 008°54'0 0.0
2014-Sep-28 11:33N 44°24' E 008°54'0 0.0
2014-Sep-28 10:33N 44°24' E 008°54'0 0.0
2014-Sep-28 09:31N 44°24' E 008°54'0 0.0
2014-Sep-28 08:33N 44°24' E 008°54'0 0.0
2014-Sep-28 07:33N 44°24' E 008°54'0 0.0
2014-Sep-28 06:33N 44°24' E 008°54'0 0.0
2014-Sep-28 05:33N 44°24' E 008°54'0 0.0
2014-Sep-28 04:29N 44°24' E 008°54'0 0.0
2014-Sep-28 03:33N 44°24' E 008°54'0 0.0
2014-Sep-28 02:33N 44°24' E 008°54'0 0.0
2014-Sep-28 01:33N 44°24' E 008°54'0 0.0
2014-Sep-28 00:33N 44°24' E 008°54'0 0.0
2014-Sep-27 23:33N 44°24' E 008°54'0 0.0
2014-Sep-27 22:33N 44°24' E 008°54'0 0.0
2014-Sep-27 21:33N 44°24' E 008°54'0 0.0
2014-Sep-27 20:32N 44°24' E 008°54'0 0.0
2014-Sep-27 19:33N 44°24' E 008°54'0 0.0
2014-Sep-27 18:19N 44°24' E 008°54'0 0.0
2014-Sep-27 17:29N 44°24' E 008°54'0 0.0
2014-Sep-27 16:32N 44°24' E 008°54'1 0.8
2014-Sep-27 15:33N 44°24' E 008°53'0 0.3
2014-Sep-27 14:33N 44°24' E 008°53'1 1.5
2014-Sep-27 13:33N 44°25' E 008°55'0 0.0
2014-Sep-27 12:30N 44°25' E 008°55'0 0.0
2014-Sep-27 11:33N 44°25' E 008°55'1 0.7
2014-Sep-27 10:31N 44°24' E 008°54'0 0.0
2014-Sep-27 09:33N 44°24' E 008°54'0 0.0
2014-Sep-27 08:29N 44°24' E 008°54'0 0.0
2014-Sep-27 07:32N 44°24' E 008°54'0 0.0
2014-Sep-27 06:33N 44°24' E 008°54'0 0.0
2014-Sep-27 05:33N 44°24' E 008°54'0 0.0
2014-Sep-27 04:33N 44°24' E 008°54'0 0.0
2014-Sep-27 03:33N 44°24' E 008°54'0 0.0
2014-Sep-27 02:33N 44°24' E 008°54'0 0.0
2014-Sep-27 01:33N 44°24' E 008°54'0 0.0
2014-Sep-27 00:33N 44°24' E 008°54'0 0.0
2014-Sep-26 23:33N 44°24' E 008°54'0 0.0
2014-Sep-26 22:33N 44°24' E 008°54'0 0.0
2014-Sep-26 21:33N 44°24' E 008°54'0 0.0
2014-Sep-26 20:33N 44°24' E 008°54'0 0.0
2014-Sep-26 19:33N 44°24' E 008°54'0 0.0
2014-Sep-26 18:33N 44°24' E 008°54'0 0.0
2014-Sep-26 17:33N 44°24' E 008°54'0 0.5
2014-Sep-26 16:33N 44°24' E 008°55'0 0.0
2014-Sep-26 15:33N 44°24' E 008°55'1 1.3
2014-Sep-26 14:31N 44°24' E 008°53'0 0.0
2014-Sep-26 13:33N 44°24' E 008°53'0 0.0
2014-Sep-26 12:31N 44°24' E 008°53'0 0.0
2014-Sep-26 11:33N 44°24' E 008°53'0 0.0
2014-Sep-26 10:29N 44°24' E 008°53'0 0.0
2014-Sep-26 09:33N 44°24' E 008°53'0 0.0
2014-Sep-26 08:33N 44°24' E 008°53'0 0.0
2014-Sep-26 07:33N 44°24' E 008°53'1 0.9
2014-Sep-26 06:32N 44°24' E 008°54'0 0.2
2014-Sep-26 05:33N 44°24' E 008°54'0 0.0
2014-Sep-26 04:33N 44°24' E 008°54'0 0.0
2014-Sep-26 03:33N 44°24' E 008°54'0 0.0
2014-Sep-26 02:33N 44°24' E 008°54'0 0.0
2014-Sep-26 01:33N 44°24' E 008°54'0 0.0
2014-Sep-26 00:33N 44°24' E 008°54'0 0.0
2014-Sep-25 23:33N 44°24' E 008°54'0 0.0
2014-Sep-25 22:33N 44°24' E 008°54'0 0.0
2014-Sep-25 21:33N 44°24' E 008°54'0 0.0
2014-Sep-25 20:32N 44°24' E 008°54'0 0.0
2014-Sep-25 19:33N 44°24' E 008°54'0 0.0
2014-Sep-25 18:33N 44°24' E 008°54'0 0.0
2014-Sep-25 17:32N 44°24' E 008°54'0 0.0
2014-Sep-25 16:33N 44°24' E 008°54'0 0.0
2014-Sep-25 15:33N 44°24' E 008°54'0 0.0
2014-Sep-25 14:33N 44°24' E 008°54'1 1.0
2014-Sep-25 13:33N 44°24' E 008°53'0 0.0
2014-Sep-25 12:32N 44°24' E 008°53'1 1.5
2014-Sep-25 11:33N 44°24' E 008°55'0 0.0
2014-Sep-25 10:33N 44°24' E 008°55'0 0.0
2014-Sep-25 09:33N 44°24' E 008°55'0 0.0
2014-Sep-25 08:33N 44°24' E 008°55'0 0.0
2014-Sep-25 07:33N 44°24' E 008°55'0 0.4
2014-Sep-25 06:33N 44°24' E 008°54'0 0.0
2014-Sep-25 05:33N 44°24' E 008°54'0 0.0
2014-Sep-25 04:33N 44°24' E 008°54'0 0.0
2014-Sep-25 03:33N 44°24' E 008°54'0 0.0
2014-Sep-25 02:33N 44°24' E 008°54'0 0.0
2014-Sep-25 01:33N 44°24' E 008°54'0 0.0
2014-Sep-25 00:33N 44°24' E 008°54'0 0.0
2014-Sep-24 23:33N 44°24' E 008°54'0 0.0
2014-Sep-24 22:33N 44°24' E 008°54'0 0.0
2014-Sep-24 21:33N 44°24' E 008°54'0 0.0
2014-Sep-24 20:33N 44°24' E 008°54'0 0.4
2014-Sep-24 19:33N 44°25' E 008°55'0 0.0
2014-Sep-24 18:33N 44°25' E 008°55'1 0.7
2014-Sep-24 17:33N 44°24' E 008°55'0 0.5
2014-Sep-24 16:33N 44°24' E 008°54'0 0.0
2014-Sep-24 15:33N 44°24' E 008°54'0 0.0
2014-Sep-24 14:33N 44°24' E 008°54'0 0.0
2014-Sep-24 13:33N 44°24' E 008°54'0 0.0
2014-Sep-24 12:33N 44°24' E 008°54'0 0.0
2014-Sep-24 11:33N 44°24' E 008°54'0 0.0
2014-Sep-24 10:32N 44°24' E 008°54'0 0.0
2014-Sep-24 09:29N 44°24' E 008°54'0 0.0
2014-Sep-24 08:30N 44°24' E 008°54'0 0.0
2014-Sep-24 07:33N 44°24' E 008°54'0 0.0
2014-Sep-24 06:30N 44°24' E 008°54'0 0.0
2014-Sep-24 05:33N 44°24' E 008°54'0 0.0
2014-Sep-24 04:33N 44°24' E 008°54'0 0.0
2014-Sep-24 03:33N 44°24' E 008°54'0 0.0
2014-Sep-24 02:33N 44°24' E 008°54'0 0.0
2014-Sep-24 01:33N 44°24' E 008°54'0 0.0
2014-Sep-24 00:33N 44°24' E 008°54'0 0.0
2014-Sep-23 23:33N 44°24' E 008°54'0 0.0
2014-Sep-23 22:33N 44°24' E 008°54'0 0.0
2014-Sep-23 21:33N 44°24' E 008°54'0 0.0
2014-Sep-23 20:33N 44°24' E 008°54'0 0.0
2014-Sep-23 19:33N 44°24' E 008°54'0 0.0
2014-Sep-23 18:33N 44°24' E 008°54'0 0.0
2014-Sep-23 17:33N 44°24' E 008°54'0 0.0
2014-Sep-23 16:29N 44°24' E 008°54'0 0.0
2014-Sep-23 15:32N 44°24' E 008°54'0 0.0
2014-Sep-23 14:33N 44°24' E 008°54'0 0.0
2014-Sep-23 13:33N 44°24' E 008°54'0 0.0
2014-Sep-23 12:33N 44°24' E 008°54'0 0.0
2014-Sep-23 11:33N 44°24' E 008°54'0 0.0
2014-Sep-23 10:33N 44°24' E 008°54'0 0.0
2014-Sep-23 09:30N 44°24' E 008°54'0 0.0
2014-Sep-23 08:33N 44°24' E 008°54'0 0.0
2014-Sep-23 07:33N 44°24' E 008°54'0 0.0
2014-Sep-23 06:33N 44°24' E 008°54'0 0.0
2014-Sep-23 05:33N 44°24' E 008°54'0 0.0
2014-Sep-23 04:31N 44°24' E 008°54'0 0.0
2014-Sep-23 03:33N 44°24' E 008°54'0 0.0
2014-Sep-23 02:33N 44°24' E 008°54'0 0.0
2014-Sep-23 01:33N 44°24' E 008°54'0 0.0
2014-Sep-23 00:33N 44°24' E 008°54'0 0.0
2014-Sep-22 23:33N 44°24' E 008°54'0 0.0
2014-Sep-22 22:33N 44°24' E 008°54'0 0.0
2014-Sep-22 21:33N 44°24' E 008°54'0 0.0
2014-Sep-22 20:31N 44°24' E 008°54'0 0.0
2014-Sep-22 19:33N 44°24' E 008°54'0 0.0
2014-Sep-22 18:33N 44°24' E 008°54'0 0.0
2014-Sep-22 17:29N 44°24' E 008°54'0 0.0
2014-Sep-22 16:33N 44°24' E 008°54'0 0.0
2014-Sep-22 15:33N 44°24' E 008°54'0 0.0
2014-Sep-22 14:33N 44°24' E 008°54'0 0.0
2014-Sep-22 13:33N 44°24' E 008°54'0 0.0
2014-Sep-22 12:33N 44°24' E 008°54'1 0.8
2014-Sep-22 11:33N 44°25' E 008°55'0 0.0
2014-Sep-22 10:33N 44°25' E 008°55'0 0.0
2014-Sep-22 09:33N 44°25' E 008°55'0 0.0
2014-Sep-22 08:33N 44°25' E 008°55'0 0.0
2014-Sep-22 07:33N 44°25' E 008°55'1 0.8
2014-Sep-22 06:33N 44°24' E 008°54'0 0.0
2014-Sep-22 05:33N 44°24' E 008°54'0 0.0
2014-Sep-22 04:27N 44°24' E 008°54'0 0.0
2014-Sep-22 03:33N 44°24' E 008°54'0 0.0
2014-Sep-22 02:33N 44°24' E 008°54'0 0.0
2014-Sep-22 01:33N 44°24' E 008°54'0 0.0
2014-Sep-22 00:33N 44°24' E 008°54'0 0.0
2014-Sep-21 23:34N 44°24' E 008°54'0 0.0
2014-Sep-21 22:33N 44°24' E 008°54'0 0.0
2014-Sep-21 21:32N 44°24' E 008°54'0 0.0
2014-Sep-21 20:33N 44°24' E 008°54'0 0.0
2014-Sep-21 19:33N 44°24' E 008°54'0 0.0
2014-Sep-21 18:33N 44°24' E 008°54'0 0.0
2014-Sep-21 17:33N 44°24' E 008°54'0 0.0
2014-Sep-21 16:33N 44°24' E 008°54'0 0.0
2014-Sep-21 15:33N 44°24' E 008°54'  
Track history (hours):
 
Tides and Currents Weather Stations Pressure Air Temp Water Temp Dewpoint Dewpoint Depression Visibility Wind Speed Wind Dir Waves Ship Positions

Punta Gialla

Last reported at 2014-Oct-01 15:32 UTC. Time now 2014-Oct-01 16:29 UTC.
Position N 44°24' E 008°54'.

Length 52 m; draft 2 m.

Type: Tanker. MMSI: 247077500.

Date/timePositionNaut miles runAvg speedWind from/ knotsBaromVisibWave heightAir tempDewpointWater temp
2014-Oct-01 15:32N 44°24' E 008°54'1 0.5
2014-Oct-01 14:33N 44°24' E 008°55'1 0.9
2014-Oct-01 13:25N 44°25' E 008°55'0 0.1
2014-Oct-01 12:32N 44°25' E 008°55'0 0.0
2014-Oct-01 11:33N 44°25' E 008°55'0 0.1
2014-Oct-01 10:28N 44°25' E 008°55'0 0.0
2014-Oct-01 09:30N 44°25' E 008°55'1 0.7
2014-Oct-01 08:33N 44°24' E 008°54'0 0.0
2014-Oct-01 07:33N 44°24' E 008°54'0 0.1
2014-Oct-01 06:33N 44°24' E 008°54'0 0.1
2014-Oct-01 05:33N 44°24' E 008°54'0 0.0
2014-Oct-01 04:32N 44°24' E 008°54'0 0.0
2014-Oct-01 03:33N 44°24' E 008°54'0 0.0
2014-Oct-01 02:33N 44°24' E 008°54'0 0.0
2014-Oct-01 01:33N 44°24' E 008°54'0 0.0
2014-Oct-01 00:33N 44°24' E 008°54'0 0.0
2014-Sep-30 23:33N 44°24' E 008°54'0 0.0
2014-Sep-30 22:33N 44°24' E 008°54'0 0.0
2014-Sep-30 21:33N 44°24' E 008°54'0 0.0
2014-Sep-30 20:31N 44°24' E 008°54'0 0.0
2014-Sep-30 19:34N 44°24' E 008°54'0 0.0
2014-Sep-30 18:34N 44°24' E 008°54'0 0.0
2014-Sep-30 17:32N 44°24' E 008°54'0 0.0
2014-Sep-30 16:33N 44°24' E 008°54'0 0.0
2014-Sep-30 15:33N 44°24' E 008°54'0 0.0
2014-Sep-30 14:33N 44°24' E 008°54'0 0.0
2014-Sep-30 13:33N 44°24' E 008°54'0 0.0
2014-Sep-30 12:33N 44°24' E 008°54'0 0.0
2014-Sep-30 11:33N 44°24' E 008°54'0 0.0
2014-Sep-30 10:33N 44°24' E 008°54'0 0.0
2014-Sep-30 07:34N 44°24' E 008°54'0 0.0
2014-Sep-30 06:34N 44°24' E 008°54'0 0.0
2014-Sep-30 05:34N 44°24' E 008°54'0 0.0
2014-Sep-30 04:34N 44°24' E 008°54'0 0.0
2014-Sep-30 03:33N 44°24' E 008°54'0 0.0
2014-Sep-30 02:34N 44°24' E 008°54'0 0.0
2014-Sep-30 01:33N 44°24' E 008°54'0 0.0
2014-Sep-30 00:34N 44°24' E 008°54'0 0.0
2014-Sep-29 23:34N 44°24' E 008°54'0 0.0
2014-Sep-29 22:33N 44°24' E 008°54'0 0.0
2014-Sep-29 21:34N 44°24' E 008°54'0 0.0
2014-Sep-29 20:33N 44°24' E 008°54'0 0.0
2014-Sep-29 19:34N 44°24' E 008°54'0 0.0
2014-Sep-29 18:34N 44°24' E 008°54'0 0.0
2014-Sep-29 17:34N 44°24' E 008°54'0 0.0
2014-Sep-29 16:22N 44°24' E 008°54'4 5.5
2014-Sep-29 15:33N 44°21' E 008°50'9 9.4
2014-Sep-29 14:33N 44°18' E 008°38'8 6.9
2014-Sep-29 13:27N 44°16' E 008°27'0 0.0
2014-Sep-29 12:17N 44°16' E 008°27'0 0.0
2014-Sep-29 11:33N 44°16' E 008°27'0 0.0
2014-Sep-29 10:30N 44°16' E 008°27'7 2.8
2014-Sep-29 08:07N 44°17' E 008°36'5 8.5
2014-Sep-29 07:33N 44°19' E 008°43'9 8.2
2014-Sep-29 06:30N 44°24' E 008°53'1 1.4
2014-Sep-29 05:33N 44°24' E 008°54'0 0.0
2014-Sep-29 04:33N 44°24' E 008°54'0 0.0
2014-Sep-29 03:33N 44°24' E 008°54'0 0.0
2014-Sep-29 02:33N 44°24' E 008°54'0 0.0
2014-Sep-29 01:33N 44°24' E 008°54'0 0.0
2014-Sep-29 00:33N 44°24' E 008°54'0 0.0
2014-Sep-28 23:33N 44°24' E 008°54'0 0.0
2014-Sep-28 22:32N 44°24' E 008°54'0 0.0
2014-Sep-28 21:33N 44°24' E 008°54'0 0.0
2014-Sep-28 20:33N 44°24' E 008°54'0 0.0
2014-Sep-28 19:33N 44°24' E 008°54'0 0.0
2014-Sep-28 18:33N 44°24' E 008°54'0 0.0
2014-Sep-28 17:32N 44°24' E 008°54'0 0.0
2014-Sep-28 16:33N 44°24' E 008°54'0 0.0
2014-Sep-28 15:33N 44°24' E 008°54'0 0.0
2014-Sep-28 14:33N 44°24' E 008°54'0 0.0
2014-Sep-28 13:32N 44°24' E 008°54'0 0.0
2014-Sep-28 12:33N 44°24' E 008°54'0 0.0
2014-Sep-28 11:33N 44°24' E 008°54'0 0.0
2014-Sep-28 10:33N 44°24' E 008°54'0 0.0
2014-Sep-28 09:31N 44°24' E 008°54'0 0.0
2014-Sep-28 08:33N 44°24' E 008°54'0 0.0
2014-Sep-28 07:33N 44°24' E 008°54'0 0.0
2014-Sep-28 06:33N 44°24' E 008°54'0 0.0
2014-Sep-28 05:33N 44°24' E 008°54'0 0.0
2014-Sep-28 04:29N 44°24' E 008°54'0 0.0
2014-Sep-28 03:33N 44°24' E 008°54'0 0.0
2014-Sep-28 02:33N 44°24' E 008°54'0 0.0
2014-Sep-28 01:33N 44°24' E 008°54'0 0.0
2014-Sep-28 00:33N 44°24' E 008°54'0 0.0
2014-Sep-27 23:33N 44°24' E 008°54'0 0.0
2014-Sep-27 22:33N 44°24' E 008°54'0 0.0
2014-Sep-27 21:33N 44°24' E 008°54'0 0.0
2014-Sep-27 20:32N 44°24' E 008°54'0 0.0
2014-Sep-27 19:33N 44°24' E 008°54'0 0.0
2014-Sep-27 18:19N 44°24' E 008°54'0 0.0
2014-Sep-27 17:29N 44°24' E 008°54'0 0.0
2014-Sep-27 16:32N 44°24' E 008°54'1 0.8
2014-Sep-27 15:33N 44°24' E 008°53'0 0.3
2014-Sep-27 14:33N 44°24' E 008°53'1 1.5
2014-Sep-27 13:33N 44°25' E 008°55'0 0.0
2014-Sep-27 12:30N 44°25' E 008°55'0 0.0
2014-Sep-27 11:33N 44°25' E 008°55'1 0.7
2014-Sep-27 10:31N 44°24' E 008°54'0 0.0
2014-Sep-27 09:33N 44°24' E 008°54'0 0.0
2014-Sep-27 08:29N 44°24' E 008°54'0 0.0
2014-Sep-27 07:32N 44°24' E 008°54'0 0.0
2014-Sep-27 06:33N 44°24' E 008°54'0 0.0
2014-Sep-27 05:33N 44°24' E 008°54'0 0.0
2014-Sep-27 04:33N 44°24' E 008°54'0 0.0
2014-Sep-27 03:33N 44°24' E 008°54'0 0.0
2014-Sep-27 02:33N 44°24' E 008°54'0 0.0
2014-Sep-27 01:33N 44°24' E 008°54'0 0.0
2014-Sep-27 00:33N 44°24' E 008°54'0 0.0
2014-Sep-26 23:33N 44°24' E 008°54'0 0.0
2014-Sep-26 22:33N 44°24' E 008°54'0 0.0
2014-Sep-26 21:33N 44°24' E 008°54'0 0.0
2014-Sep-26 20:33N 44°24' E 008°54'0 0.0
2014-Sep-26 19:33N 44°24' E 008°54'0 0.0
2014-Sep-26 18:33N 44°24' E 008°54'0 0.0
2014-Sep-26 17:33N 44°24' E 008°54'0 0.5
2014-Sep-26 16:33N 44°24' E 008°55'0 0.0
2014-Sep-26 15:33N 44°24' E 008°55'1 1.3
2014-Sep-26 14:31N 44°24' E 008°53'0 0.0
2014-Sep-26 13:33N 44°24' E 008°53'0 0.0
2014-Sep-26 12:31N 44°24' E 008°53'0 0.0
2014-Sep-26 11:33N 44°24' E 008°53'0 0.0
2014-Sep-26 10:29N 44°24' E 008°53'0 0.0
2014-Sep-26 09:33N 44°24' E 008°53'0 0.0
2014-Sep-26 08:33N 44°24' E 008°53'0 0.0
2014-Sep-26 07:33N 44°24' E 008°53'1 0.9
2014-Sep-26 06:32N 44°24' E 008°54'0 0.2
2014-Sep-26 05:33N 44°24' E 008°54'0 0.0
2014-Sep-26 04:33N 44°24' E 008°54'0 0.0
2014-Sep-26 03:33N 44°24' E 008°54'0 0.0
2014-Sep-26 02:33N 44°24' E 008°54'0 0.0
2014-Sep-26 01:33N 44°24' E 008°54'0 0.0
2014-Sep-26 00:33N 44°24' E 008°54'0 0.0
2014-Sep-25 23:33N 44°24' E 008°54'0 0.0
2014-Sep-25 22:33N 44°24' E 008°54'0 0.0
2014-Sep-25 21:33N 44°24' E 008°54'0 0.0
2014-Sep-25 20:32N 44°24' E 008°54'0 0.0
2014-Sep-25 19:33N 44°24' E 008°54'0 0.0
2014-Sep-25 18:33N 44°24' E 008°54'0 0.0
2014-Sep-25 17:32N 44°24' E 008°54'0 0.0
2014-Sep-25 16:33N 44°24' E 008°54'0 0.0
2014-Sep-25 15:33N 44°24' E 008°54'0 0.0
2014-Sep-25 14:33N 44°24' E 008°54'1 1.0
2014-Sep-25 13:33N 44°24' E 008°53'0 0.0
2014-Sep-25 12:32N 44°24' E 008°53'1 1.5
2014-Sep-25 11:33N 44°24' E 008°55'0 0.0
2014-Sep-25 10:33N 44°24' E 008°55'0 0.0
2014-Sep-25 09:33N 44°24' E 008°55'0 0.0
2014-Sep-25 08:33N 44°24' E 008°55'0 0.0
2014-Sep-25 07:33N 44°24' E 008°55'0 0.4
2014-Sep-25 06:33N 44°24' E 008°54'0 0.0
2014-Sep-25 05:33N 44°24' E 008°54'0 0.0
2014-Sep-25 04:33N 44°24' E 008°54'0 0.0
2014-Sep-25 03:33N 44°24' E 008°54'0 0.0
2014-Sep-25 02:33N 44°24' E 008°54'0 0.0
2014-Sep-25 01:33N 44°24' E 008°54'0 0.0
2014-Sep-25 00:33N 44°24' E 008°54'0 0.0
2014-Sep-24 23:33N 44°24' E 008°54'0 0.0
2014-Sep-24 22:33N 44°24' E 008°54'0 0.0
2014-Sep-24 21:33N 44°24' E 008°54'0 0.0
2014-Sep-24 20:33N 44°24' E 008°54'0 0.4
2014-Sep-24 19:33N 44°25' E 008°55'0 0.0
2014-Sep-24 18:33N 44°25' E 008°55'1 0.7
2014-Sep-24 17:33N 44°24' E 008°55'0 0.5
2014-Sep-24 16:33N 44°24' E 008°54'0 0.0
2014-Sep-24 15:33N 44°24' E 008°54'0 0.0
2014-Sep-24 14:33N 44°24' E 008°54'0 0.0
2014-Sep-24 13:33N 44°24' E 008°54'0 0.0
2014-Sep-24 12:33N 44°24' E 008°54'0 0.0
2014-Sep-24 11:33N 44°24' E 008°54'0 0.0
2014-Sep-24 10:32N 44°24' E 008°54'0 0.0
2014-Sep-24 09:29N 44°24' E 008°54'0 0.0
2014-Sep-24 08:30N 44°24' E 008°54'0 0.0
2014-Sep-24 07:33N 44°24' E 008°54'0 0.0
2014-Sep-24 06:30N 44°24' E 008°54'0 0.0
2014-Sep-24 05:33N 44°24' E 008°54'0 0.0
2014-Sep-24 04:33N 44°24' E 008°54'0 0.0
2014-Sep-24 03:33N 44°24' E 008°54'0 0.0
2014-Sep-24 02:33N 44°24' E 008°54'0 0.0
2014-Sep-24 01:33N 44°24' E 008°54'0 0.0
2014-Sep-24 00:33N 44°24' E 008°54'0 0.0
2014-Sep-23 23:33N 44°24' E 008°54'0 0.0
2014-Sep-23 22:33N 44°24' E 008°54'0 0.0
2014-Sep-23 21:33N 44°24' E 008°54'0 0.0
2014-Sep-23 20:33N 44°24' E 008°54'0 0.0
2014-Sep-23 19:33N 44°24' E 008°54'0 0.0
2014-Sep-23 18:33N 44°24' E 008°54'0 0.0
2014-Sep-23 17:33N 44°24' E 008°54'0 0.0
2014-Sep-23 16:29N 44°24' E 008°54'0 0.0
2014-Sep-23 15:32N 44°24' E 008°54'0 0.0
2014-Sep-23 14:33N 44°24' E 008°54'0 0.0
2014-Sep-23 13:33N 44°24' E 008°54'0 0.0
2014-Sep-23 12:33N 44°24' E 008°54'0 0.0
2014-Sep-23 11:33N 44°24' E 008°54'0 0.0
2014-Sep-23 10:33N 44°24' E 008°54'0 0.0
2014-Sep-23 09:30N 44°24' E 008°54'0 0.0
2014-Sep-23 08:33N 44°24' E 008°54'0 0.0
2014-Sep-23 07:33N 44°24' E 008°54'0 0.0
2014-Sep-23 06:33N 44°24' E 008°54'0 0.0
2014-Sep-23 05:33N 44°24' E 008°54'0 0.0
2014-Sep-23 04:31N 44°24' E 008°54'0 0.0
2014-Sep-23 03:33N 44°24' E 008°54'0 0.0
2014-Sep-23 02:33N 44°24' E 008°54'0 0.0
2014-Sep-23 01:33N 44°24' E 008°54'0 0.0
2014-Sep-23 00:33N 44°24' E 008°54'0 0.0
2014-Sep-22 23:33N 44°24' E 008°54'0 0.0
2014-Sep-22 22:33N 44°24' E 008°54'0 0.0
2014-Sep-22 21:33N 44°24' E 008°54'0 0.0
2014-Sep-22 20:31N 44°24' E 008°54'0 0.0
2014-Sep-22 19:33N 44°24' E 008°54'0 0.0
2014-Sep-22 18:33N 44°24' E 008°54'0 0.0
2014-Sep-22 17:29N 44°24' E 008°54'0 0.0
2014-Sep-22 16:33N 44°24' E 008°54'0 0.0
2014-Sep-22 15:33N 44°24' E 008°54'0 0.0
2014-Sep-22 14:33N 44°24' E 008°54'0 0.0
2014-Sep-22 13:33N 44°24' E 008°54'0 0.0
2014-Sep-22 12:33N 44°24' E 008°54'1 0.8
2014-Sep-22 11:33N 44°25' E 008°55'0 0.0
2014-Sep-22 10:33N 44°25' E 008°55'0 0.0
2014-Sep-22 09:33N 44°25' E 008°55'0 0.0
2014-Sep-22 08:33N 44°25' E 008°55'0 0.0
2014-Sep-22 07:33N 44°25' E 008°55'1 0.8
2014-Sep-22 06:33N 44°24' E 008°54'0 0.0
2014-Sep-22 05:33N 44°24' E 008°54'0 0.0
2014-Sep-22 04:27N 44°24' E 008°54'0 0.0
2014-Sep-22 03:33N 44°24' E 008°54'0 0.0
2014-Sep-22 02:33N 44°24' E 008°54'0 0.0
2014-Sep-22 01:33N 44°24' E 008°54'0 0.0
2014-Sep-22 00:33N 44°24' E 008°54'0 0.0
2014-Sep-21 23:34N 44°24' E 008°54'0 0.0
2014-Sep-21 22:33N 44°24' E 008°54'0 0.0
2014-Sep-21 21:32N 44°24' E 008°54'0 0.0
2014-Sep-21 20:33N 44°24' E 008°54'0 0.0
2014-Sep-21 19:33N 44°24' E 008°54'0 0.0
2014-Sep-21 18:33N 44°24' E 008°54'0 0.0
2014-Sep-21 17:33N 44°24' E 008°54'0 0.0
2014-Sep-21 16:33N 44°24' E 008°54'0 0.0
2014-Sep-21 15:33N 44°24' E 008°54'  

Dump ship's entire track history